sensor_id;sensor_type;location;lat;lon;timestamp;pressure;altitude;pressure_sealevel;temperature;humidity
37486;BME280;23341;50.296;18.960;2023-03-13T00:01:58;46106.19;;;-144.43;71.31
37486;BME280;23341;50.296;18.960;2023-03-13T00:07:03;46082.22;;;-144.43;72.06
37486;BME280;23341;50.296;18.960;2023-03-13T00:12:09;46022.31;;;-144.43;73.19
37486;BME280;23341;50.296;18.960;2023-03-13T00:17:13;45984.38;;;-144.43;73.99
37486;BME280;23341;50.296;18.960;2023-03-13T00:22:18;45966.41;;;-144.43;74.71
37486;BME280;23341;50.296;18.960;2023-03-13T00:27:23;45930.47;;;-144.43;75.14
37486;BME280;23341;50.296;18.960;2023-03-13T00:32:28;45862.56;;;-144.43;75.70
37486;BME280;23341;50.296;18.960;2023-03-13T00:37:32;45868.56;;;-144.43;76.17
37486;BME280;23341;50.296;18.960;2023-03-13T00:42:38;45818.63;;;-144.43;76.74
37486;BME280;23341;50.296;18.960;2023-03-13T00:47:42;45790.69;;;-144.43;77.39
37486;BME280;23341;50.296;18.960;2023-03-13T00:52:47;45754.75;;;-144.43;77.43
37486;BME280;23341;50.296;18.960;2023-03-13T00:57:52;45754.75;;;-144.43;77.97
37486;BME280;23341;50.296;18.960;2023-03-13T01:02:56;45688.84;;;-144.43;79.23
37486;BME280;23341;50.296;18.960;2023-03-13T01:08:01;45662.88;;;-144.43;78.90
37486;BME280;23341;50.296;18.960;2023-03-13T01:13:07;45640.91;;;-144.43;80.22
37486;BME280;23341;50.296;18.960;2023-03-13T01:18:12;45577.03;;;-144.43;81.11
37486;BME280;23341;50.296;18.960;2023-03-13T01:23:17;45503.16;;;-144.43;81.06
37486;BME280;23341;50.296;18.960;2023-03-13T01:28:24;45479.19;;;-144.43;81.65
37486;BME280;23341;50.296;18.960;2023-03-13T01:33:29;45405.31;;;-144.43;82.41
37486;BME280;23341;50.296;18.960;2023-03-13T01:38:33;45365.38;;;-144.43;83.34
37486;BME280;23341;50.296;18.960;2023-03-13T01:43:39;45311.47;;;-144.43;83.39
37486;BME280;23341;50.296;18.960;2023-03-13T01:48:48;45263.56;;;-144.43;83.84
37486;BME280;23341;50.296;18.960;2023-03-13T01:54:00;45201.66;;;-144.43;84.74
37486;BME280;23341;50.296;18.960;2023-03-13T01:59:10;45167.72;;;-144.43;85.54
37486;BME280;23341;50.296;18.960;2023-03-13T02:04:19;45113.81;;;-144.43;85.54
37486;BME280;23341;50.296;18.960;2023-03-13T02:09:26;45059.91;;;-144.43;86.35
37486;BME280;23341;50.296;18.960;2023-03-13T02:14:36;44970.06;;;-144.43;87.31
37486;BME280;23341;50.296;18.960;2023-03-13T02:19:43;44792.41;;;-144.43;89.80
37486;BME280;23341;50.296;18.960;2023-03-13T02:24:52;44728.50;;;-144.43;89.27
37486;BME280;23341;50.296;18.960;2023-03-13T02:30:02;44664.63;;;-144.43;89.80
37486;BME280;23341;50.296;18.960;2023-03-13T02:35:09;44610.72;;;-144.43;90.16
37486;BME280;23341;50.296;18.960;2023-03-13T02:40:17;44516.91;;;-144.43;91.49
37486;BME280;23341;50.296;18.960;2023-03-13T02:45:26;44339.25;;;-144.43;93.00
37486;BME280;23341;50.296;18.960;2023-03-13T02:50:31;44305.31;;;-144.43;92.91
37486;BME280;23341;50.296;18.960;2023-03-13T02:55:40;44207.50;;;-144.43;94.17
37486;BME280;23341;50.296;18.960;2023-03-13T03:00:47;44207.50;;;-144.43;93.67
37486;BME280;23341;50.296;18.960;2023-03-13T03:05:52;44151.63;;;-144.43;93.79
37486;BME280;23341;50.296;18.960;2023-03-13T03:10:56;44073.78;;;-144.43;94.31
37486;BME280;23341;50.296;18.960;2023-03-13T03:16:06;44027.88;;;-144.43;94.77
37486;BME280;23341;50.296;18.960;2023-03-13T03:21:12;43940.06;;;-144.43;96.05
37486;BME280;23341;50.296;18.960;2023-03-13T03:26:17;43834.28;;;-144.43;97.05
37486;BME280;23341;50.296;18.960;2023-03-13T03:31:23;43864.22;;;-144.43;95.85
37486;BME280;23341;50.296;18.960;2023-03-13T03:36:30;43788.38;;;-144.43;96.94
37486;BME280;23341;50.296;18.960;2023-03-13T03:41:35;43726.50;;;-144.43;96.66
37486;BME280;23341;50.296;18.960;2023-03-13T03:46:42;43692.56;;;-144.43;96.76
37486;BME280;23341;50.296;18.960;2023-03-13T03:51:47;43542.91;;;-144.43;100.00
37486;BME280;23341;50.296;18.960;2023-03-13T03:56:56;43271.50;;;-144.43;100.00
37486;BME280;23341;50.296;18.960;2023-03-13T04:02:02;43107.84;;;-144.43;100.00
37486;BME280;23341;50.296;18.960;2023-03-13T04:07:08;42788.59;;;-144.43;100.00
37486;BME280;23341;50.296;18.960;2023-03-13T04:12:13;42838.47;;;-144.43;100.00
37486;BME280;23341;50.296;18.960;2023-03-13T04:17:22;42852.44;;;-144.43;100.00
37486;BME280;23341;50.296;18.960;2023-03-13T04:22:26;42888.38;;;-144.43;100.00
37486;BME280;23341;50.296;18.960;2023-03-13T04:27:33;42904.31;;;-144.43;100.00
37486;BME280;23341;50.296;18.960;2023-03-13T04:32:40;42812.53;;;-144.43;100.00
37486;BME280;23341;50.296;18.960;2023-03-13T04:38:17;42834.50;;;-144.43;100.00
37486;BME280;23341;50.296;18.960;2023-03-13T04:43:44;42796.56;;;-144.43;100.00
37486;BME280;23341;50.296;18.960;2023-03-13T04:49:09;42834.50;;;-144.43;100.00
37486;BME280;23341;50.296;18.960;2023-03-13T04:54:29;42860.44;;;-144.43;100.00
37486;BME280;23341;50.296;18.960;2023-03-13T04:59:52;42882.38;;;-144.43;100.00
37486;BME280;23341;50.296;18.960;2023-03-13T05:05:22;42932.25;;;-144.43;100.00
37486;BME280;23341;50.296;18.960;2023-03-13T05:10:54;42968.19;;;-144.43;100.00
37486;BME280;23341;50.296;18.960;2023-03-13T05:16:18;43016.06;;;-144.43;100.00
37486;BME280;23341;50.296;18.960;2023-03-13T05:21:40;43091.91;;;-144.43;100.00
37486;BME280;23341;50.296;18.960;2023-03-13T05:26:58;43177.69;;;-144.43;100.00
37486;BME280;23341;50.296;18.960;2023-03-13T05:32:28;43241.56;;;-144.43;100.00
37486;BME280;23341;50.296;18.960;2023-03-13T05:37:34;43285.47;;;-144.43;100.00
37486;BME280;23341;50.296;18.960;2023-03-13T05:42:50;43243.56;;;-144.43;100.00
37486;BME280;23341;50.296;18.960;2023-03-13T05:48:17;43305.41;;;-144.43;100.00
37486;BME280;23341;50.296;18.960;2023-03-13T05:53:59;43421.16;;;-144.43;100.00
37486;BME280;23341;50.296;18.960;2023-03-13T05:59:32;43481.03;;;-144.43;99.82
37486;BME280;23341;50.296;18.960;2023-03-13T06:04:55;43524.94;;;-144.43;98.07
37486;BME280;23341;50.296;18.960;2023-03-13T06:10:01;43546.88;;;-144.43;97.23
37486;BME280;23341;50.296;18.960;2023-03-13T06:15:07;43562.84;;;-144.43;96.10
37486;BME280;23341;50.296;18.960;2023-03-13T06:20:29;43600.78;;;-144.43;95.32
37486;BME280;23341;50.296;18.960;2023-03-13T06:25:35;43650.66;;;-144.43;94.98
37486;BME280;23341;50.296;18.960;2023-03-13T06:30:40;43720.50;;;-144.43;93.89
37486;BME280;23341;50.296;18.960;2023-03-13T06:35:45;43768.41;;;-144.43;90.93
37486;BME280;23341;50.296;18.960;2023-03-13T06:41:00;43892.16;;;-144.43;86.89
37486;BME280;23341;50.296;18.960;2023-03-13T06:46:04;43979.97;;;-144.43;82.13
37486;BME280;23341;50.296;18.960;2023-03-13T06:51:10;44033.88;;;-144.43;82.14
37486;BME280;23341;50.296;18.960;2023-03-13T06:56:16;44033.88;;;-144.43;84.34
37486;BME280;23341;50.296;18.960;2023-03-13T07:01:21;44029.88;;;-144.43;84.74
37486;BME280;23341;50.296;18.960;2023-03-13T07:06:25;44025.88;;;-144.43;80.02
37486;BME280;23341;50.296;18.960;2023-03-13T07:11:31;44115.69;;;-144.43;72.83
37486;BME280;23341;50.296;18.960;2023-03-13T07:16:35;44287.34;;;-144.43;64.64
37486;BME280;23341;50.296;18.960;2023-03-13T07:21:40;44496.94;;;-144.43;68.08
37486;BME280;23341;50.296;18.960;2023-03-13T07:26:46;44459.03;;;-144.43;72.33
37486;BME280;23341;50.296;18.960;2023-03-13T07:32:07;44419.09;;;-144.43;74.18
37486;BME280;23341;50.296;18.960;2023-03-13T07:37:12;44417.09;;;-144.43;69.23
37486;BME280;23341;50.296;18.960;2023-03-13T07:42:18;44457.03;;;-144.43;67.75
37486;BME280;23341;50.296;18.960;2023-03-13T07:47:22;44477.00;;;-144.43;67.13
37486;BME280;23341;50.296;18.960;2023-03-13T07:52:26;44488.97;;;-144.43;66.08
37486;BME280;23341;50.296;18.960;2023-03-13T07:57:32;44512.91;;;-144.43;68.80
37486;BME280;23341;50.296;18.960;2023-03-13T08:02:36;44512.91;;;-144.43;67.18
37486;BME280;23341;50.296;18.960;2023-03-13T08:07:43;44566.81;;;-144.43;65.47
37486;BME280;23341;50.296;18.960;2023-03-13T08:12:49;44580.78;;;-144.43;68.79
37486;BME280;23341;50.296;18.960;2023-03-13T08:17:53;44540.88;;;-144.43;66.55
37486;BME280;23341;50.296;18.960;2023-03-13T08:22:58;44554.84;;;-144.43;66.39
37486;BME280;23341;50.296;18.960;2023-03-13T08:28:04;44556.84;;;-144.43;66.99
37486;BME280;23341;50.296;18.960;2023-03-13T08:33:08;44560.81;;;-144.43;65.62
37486;BME280;23341;50.296;18.960;2023-03-13T08:38:13;44600.75;;;-144.43;65.91
37486;BME280;23341;50.296;18.960;2023-03-13T08:43:18;44552.84;;;-144.43;64.83
37486;BME280;23341;50.296;18.960;2023-03-13T08:48:23;44688.59;;;-144.43;67.36
37486;BME280;23341;50.296;18.960;2023-03-13T08:53:28;44618.72;;;-144.43;67.02
37486;BME280;23341;50.296;18.960;2023-03-13T08:58:34;44668.63;;;-144.43;67.36
37486;BME280;23341;50.296;18.960;2023-03-13T09:03:39;44710.53;;;-144.43;67.02
37486;BME280;23341;50.296;18.960;2023-03-13T09:08:43;44680.59;;;-144.43;65.61
37486;BME280;23341;50.296;18.960;2023-03-13T09:13:50;44614.72;;;-144.43;65.93
37486;BME280;23341;50.296;18.960;2023-03-13T09:18:54;44616.72;;;-144.43;64.11
37486;BME280;23341;50.296;18.960;2023-03-13T09:24:00;44608.75;;;-144.43;62.96
37486;BME280;23341;50.296;18.960;2023-03-13T09:29:06;44646.66;;;-144.43;61.38
37486;BME280;23341;50.296;18.960;2023-03-13T09:34:10;44620.72;;;-144.43;60.90
37486;BME280;23341;50.296;18.960;2023-03-13T09:39:15;44638.69;;;-144.43;59.76
37486;BME280;23341;50.296;18.960;2023-03-13T09:44:24;44660.63;;;-144.43;59.90
37486;BME280;23341;50.296;18.960;2023-03-13T09:49:33;44752.47;;;-144.43;59.55
37486;BME280;23341;50.296;18.960;2023-03-13T09:54:41;44628.69;;;-144.43;58.88
37486;BME280;23341;50.296;18.960;2023-03-13T09:59:51;44732.50;;;-144.43;56.47
37486;BME280;23341;50.296;18.960;2023-03-13T10:05:04;44720.53;;;-144.43;56.38
37486;BME280;23341;50.296;18.960;2023-03-13T10:10:14;44708.56;;;-144.43;55.06
37486;BME280;23341;50.296;18.960;2023-03-13T10:15:33;44720.53;;;-144.43;55.07
37486;BME280;23341;50.296;18.960;2023-03-13T10:20:42;44714.53;;;-144.43;54.87
37486;BME280;23341;50.296;18.960;2023-03-13T10:25:48;44734.50;;;-144.43;54.98
37486;BME280;23341;50.296;18.960;2023-03-13T10:31:02;44760.44;;;-144.43;53.92
37486;BME280;23341;50.296;18.960;2023-03-13T10:36:11;44932.13;;;-144.43;53.83
37486;BME280;23341;50.296;18.960;2023-03-13T10:41:26;44858.28;;;-144.43;55.15
37486;BME280;23341;50.296;18.960;2023-03-13T10:46:34;44956.09;;;-144.43;55.81
37486;BME280;23341;50.296;18.960;2023-03-13T10:51:45;44944.13;;;-144.43;56.78
37486;BME280;23341;50.296;18.960;2023-03-13T10:56:51;44964.09;;;-144.43;56.61
37486;BME280;23341;50.296;18.960;2023-03-13T11:02:00;44978.06;;;-144.43;57.11
37486;BME280;23341;50.296;18.960;2023-03-13T11:07:10;45012.00;;;-144.43;58.47
37486;BME280;23341;50.296;18.960;2023-03-13T11:12:19;45027.97;;;-144.43;59.26
37486;BME280;23341;50.296;18.960;2023-03-13T11:17:31;45010.00;;;-144.43;58.96
37486;BME280;23341;50.296;18.960;2023-03-13T11:22:50;45035.94;;;-144.43;58.45
37486;BME280;23341;50.296;18.960;2023-03-13T11:33:39;45057.91;;;-144.43;60.13
37486;BME280;23341;50.296;18.960;2023-03-13T11:38:54;44998.03;;;-144.43;60.66
37486;BME280;23341;50.296;18.960;2023-03-13T11:44:15;45019.97;;;-144.43;58.63
37486;BME280;23341;50.296;18.960;2023-03-13T11:49:35;45041.94;;;-144.43;57.12
37486;BME280;23341;50.296;18.960;2023-03-13T11:54:48;45039.94;;;-144.43;57.97
37486;BME280;23341;50.296;18.960;2023-03-13T12:00:13;45065.91;;;-144.43;57.46
37486;BME280;23341;50.296;18.960;2023-03-13T12:05:21;45087.84;;;-144.43;55.47
37486;BME280;23341;50.296;18.960;2023-03-13T12:10:29;45085.88;;;-144.43;54.49
37486;BME280;23341;50.296;18.960;2023-03-13T12:15:39;45185.69;;;-144.43;52.48
37486;BME280;23341;50.296;18.960;2023-03-13T12:20:51;45185.69;;;-144.43;52.00
37486;BME280;23341;50.296;18.960;2023-03-13T12:26:02;45231.59;;;-144.43;51.35
37486;BME280;23341;50.296;18.960;2023-03-13T12:31:16;45237.59;;;-144.43;52.23
37486;BME280;23341;50.296;18.960;2023-03-13T12:36:28;45251.56;;;-144.43;52.66
37486;BME280;23341;50.296;18.960;2023-03-13T12:41:37;45243.59;;;-144.43;56.55
37486;BME280;23341;50.296;18.960;2023-03-13T12:46:45;45285.50;;;-144.43;58.53
37486;BME280;23341;50.296;18.960;2023-03-13T12:52:09;45299.50;;;-144.43;59.66
37486;BME280;23341;50.296;18.960;2023-03-13T12:57:38;45259.56;;;-144.43;61.63
37486;BME280;23341;50.296;18.960;2023-03-13T13:03:04;45275.53;;;-144.43;66.32
37486;BME280;23341;50.296;18.960;2023-03-13T13:08:23;45235.59;;;-144.43;69.57
37486;BME280;23341;50.296;18.960;2023-03-13T13:13:29;45195.66;;;-144.43;70.20
37486;BME280;23341;50.296;18.960;2023-03-13T13:18:33;45187.69;;;-144.43;69.51
37486;BME280;23341;50.296;18.960;2023-03-13T13:23:40;45163.72;;;-144.43;69.82
37486;BME280;23341;50.296;18.960;2023-03-13T13:28:48;45163.72;;;-144.43;68.04
37486;BME280;23341;50.296;18.960;2023-03-13T13:33:52;45181.69;;;-144.43;65.76
37486;BME280;23341;50.296;18.960;2023-03-13T13:39:00;45195.66;;;-144.43;64.72
37486;BME280;23341;50.296;18.960;2023-03-13T13:44:24;45223.63;;;-144.43;64.43
37486;BME280;23341;50.296;18.960;2023-03-13T13:49:50;45187.69;;;-144.43;65.44
37486;BME280;23341;50.296;18.960;2023-03-13T13:54:57;45223.63;;;-144.43;64.65
37486;BME280;23341;50.296;18.960;2023-03-13T14:00:15;45215.63;;;-144.43;65.46
37486;BME280;23341;50.296;18.960;2023-03-13T14:05:24;45219.63;;;-144.43;65.21
37486;BME280;23341;50.296;18.960;2023-03-13T14:10:36;45207.66;;;-144.43;65.92
37486;BME280;23341;50.296;18.960;2023-03-13T14:15:42;45205.66;;;-144.43;68.73
37486;BME280;23341;50.296;18.960;2023-03-13T14:20:58;45115.81;;;-144.43;76.73
37486;BME280;23341;50.296;18.960;2023-03-13T14:26:13;45089.84;;;-144.43;80.33
37486;BME280;23341;50.296;18.960;2023-03-13T14:31:24;45049.94;;;-144.43;80.21
37486;BME280;23341;50.296;18.960;2023-03-13T14:36:29;45045.94;;;-144.43;80.22
37486;BME280;23341;50.296;18.960;2023-03-13T14:41:49;44996.03;;;-144.43;80.64
37486;BME280;23341;50.296;18.960;2023-03-13T14:46:55;44976.06;;;-144.43;79.96
37486;BME280;23341;50.296;18.960;2023-03-13T14:52:04;44968.06;;;-144.43;79.16
37486;BME280;23341;50.296;18.960;2023-03-13T14:57:19;44962.09;;;-144.43;78.53
37486;BME280;23341;50.296;18.960;2023-03-13T15:02:29;44952.09;;;-144.43;76.58
37486;BME280;23341;50.296;18.960;2023-03-13T15:07:36;44984.03;;;-144.43;75.51
37486;BME280;23341;50.296;18.960;2023-03-13T15:12:44;44984.03;;;-144.43;74.74
37486;BME280;23341;50.296;18.960;2023-03-13T15:17:48;44964.09;;;-144.43;74.26
37486;BME280;23341;50.296;18.960;2023-03-13T15:22:52;44948.09;;;-144.43;73.35
37486;BME280;23341;50.296;18.960;2023-03-13T15:27:58;44986.03;;;-144.43;73.39
37486;BME280;23341;50.296;18.960;2023-03-13T15:33:02;44972.06;;;-144.43;71.99
37486;BME280;23341;50.296;18.960;2023-03-13T15:38:11;45023.97;;;-144.43;70.46
37486;BME280;23341;50.296;18.960;2023-03-13T15:43:19;45016.00;;;-144.43;69.82
37486;BME280;23341;50.296;18.960;2023-03-13T15:48:25;45016.00;;;-144.43;69.89
37486;BME280;23341;50.296;18.960;2023-03-13T15:53:31;45004.00;;;-144.43;69.75
37486;BME280;23341;50.296;18.960;2023-03-13T15:58:38;45037.94;;;-144.43;70.03
37486;BME280;23341;50.296;18.960;2023-03-13T16:03:43;45010.00;;;-144.43;70.13
37486;BME280;23341;50.296;18.960;2023-03-13T16:08:47;45031.97;;;-144.43;70.37
37486;BME280;23341;50.296;18.960;2023-03-13T16:13:53;45010.00;;;-144.43;69.97
37486;BME280;23341;50.296;18.960;2023-03-13T16:18:59;45059.91;;;-144.43;69.96
37486;BME280;23341;50.296;18.960;2023-03-13T16:24:06;45002.00;;;-144.43;70.11
37486;BME280;23341;50.296;18.960;2023-03-13T16:29:13;44996.03;;;-144.43;70.25
37486;BME280;23341;50.296;18.960;2023-03-13T16:34:18;45027.97;;;-144.43;71.18
37486;BME280;23341;50.296;18.960;2023-03-13T16:39:22;45000.00;;;-144.43;71.58
37486;BME280;23341;50.296;18.960;2023-03-13T16:44:28;44986.03;;;-144.43;72.41
37486;BME280;23341;50.296;18.960;2023-03-13T16:49:32;44984.03;;;-144.43;72.65
37486;BME280;23341;50.296;18.960;2023-03-13T16:54:36;44956.09;;;-144.43;72.54
37486;BME280;23341;50.296;18.960;2023-03-13T16:59:42;44952.09;;;-144.43;73.34
37486;BME280;23341;50.296;18.960;2023-03-13T17:04:47;44952.09;;;-144.43;73.81
37486;BME280;23341;50.296;18.960;2023-03-13T17:09:52;44912.19;;;-144.43;74.12
37486;BME280;23341;50.296;18.960;2023-03-13T17:14:57;44932.13;;;-144.43;74.35
37486;BME280;23341;50.296;18.960;2023-03-13T17:20:02;44908.19;;;-144.43;75.32
37486;BME280;23341;50.296;18.960;2023-03-13T17:25:09;44896.19;;;-144.43;75.02
37486;BME280;23341;50.296;18.960;2023-03-13T17:30:23;44894.22;;;-144.43;74.80
37486;BME280;23341;50.296;18.960;2023-03-13T17:35:28;44882.22;;;-144.43;75.54
37486;BME280;23341;50.296;18.960;2023-03-13T17:40:35;44886.22;;;-144.43;75.39
37486;BME280;23341;50.296;18.960;2023-03-13T17:45:42;44920.16;;;-144.43;75.60
37486;BME280;23341;50.296;18.960;2023-03-13T17:50:46;44888.22;;;-144.43;75.77
37486;BME280;23341;50.296;18.960;2023-03-13T17:55:51;44892.22;;;-144.43;75.51
37486;BME280;23341;50.296;18.960;2023-03-13T18:00:57;44928.16;;;-144.43;75.55
37486;BME280;23341;50.296;18.960;2023-03-13T18:06:01;44910.19;;;-144.43;74.52
37486;BME280;23341;50.296;18.960;2023-03-13T18:11:08;44932.13;;;-144.43;73.58
37486;BME280;23341;50.296;18.960;2023-03-13T18:16:24;44912.19;;;-144.43;73.00
37486;BME280;23341;50.296;18.960;2023-03-13T18:21:31;44948.09;;;-144.43;72.10
37486;BME280;23341;50.296;18.960;2023-03-13T18:26:37;44928.16;;;-144.43;72.35
37486;BME280;23341;50.296;18.960;2023-03-13T18:31:43;44944.13;;;-144.43;72.24
37486;BME280;23341;50.296;18.960;2023-03-13T18:36:48;44948.09;;;-144.43;73.05
37486;BME280;23341;50.296;18.960;2023-03-13T18:41:52;44986.03;;;-144.43;72.82
37486;BME280;23341;50.296;18.960;2023-03-13T18:46:58;44960.09;;;-144.43;71.91
37486;BME280;23341;50.296;18.960;2023-03-13T18:52:03;44972.06;;;-144.43;70.15
37486;BME280;23341;50.296;18.960;2023-03-13T18:57:17;44976.06;;;-144.43;68.51
37486;BME280;23341;50.296;18.960;2023-03-13T19:02:23;45039.94;;;-144.43;67.67
37486;BME280;23341;50.296;18.960;2023-03-13T19:07:28;45023.97;;;-144.43;67.82
37486;BME280;23341;50.296;18.960;2023-03-13T19:12:32;45027.97;;;-144.43;67.40
37486;BME280;23341;50.296;18.960;2023-03-13T19:17:38;45069.91;;;-144.43;66.22
37486;BME280;23341;50.296;18.960;2023-03-13T19:22:44;45065.91;;;-144.43;63.78
37486;BME280;23341;50.296;18.960;2023-03-13T19:27:48;45115.81;;;-144.43;62.83
37486;BME280;23341;50.296;18.960;2023-03-13T19:32:54;45109.81;;;-144.43;62.31
37486;BME280;23341;50.296;18.960;2023-03-13T19:37:58;45137.78;;;-144.43;61.30
37486;BME280;23341;50.296;18.960;2023-03-13T19:43:03;45143.75;;;-144.43;61.31
37486;BME280;23341;50.296;18.960;2023-03-13T19:48:09;45175.72;;;-144.43;59.64
37486;BME280;23341;50.296;18.960;2023-03-13T19:53:13;45173.72;;;-144.43;58.67
37486;BME280;23341;50.296;18.960;2023-03-13T19:58:17;45179.69;;;-144.43;57.88
37486;BME280;23341;50.296;18.960;2023-03-13T20:03:23;45203.66;;;-144.43;57.22
37486;BME280;23341;50.296;18.960;2023-03-13T20:08:27;45205.66;;;-144.43;56.49
37486;BME280;23341;50.296;18.960;2023-03-13T20:13:31;45229.63;;;-144.43;56.74
37486;BME280;23341;50.296;18.960;2023-03-13T20:18:38;45241.59;;;-144.43;57.03
37486;BME280;23341;50.296;18.960;2023-03-13T20:23:47;45225.63;;;-144.43;56.63
37486;BME280;23341;50.296;18.960;2023-03-13T20:28:53;45237.59;;;-144.43;56.06
37486;BME280;23341;50.296;18.960;2023-03-13T20:34:00;45259.56;;;-144.43;55.40
37486;BME280;23341;50.296;18.960;2023-03-13T20:39:05;45249.56;;;-144.43;54.61
37486;BME280;23341;50.296;18.960;2023-03-13T20:44:09;45243.59;;;-144.43;54.07
37486;BME280;23341;50.296;18.960;2023-03-13T20:49:15;45315.47;;;-144.43;53.41
37486;BME280;23341;50.296;18.960;2023-03-13T20:54:20;45275.53;;;-144.43;53.09
37486;BME280;23341;50.296;18.960;2023-03-13T20:59:24;45289.50;;;-144.43;52.99
37486;BME280;23341;50.296;18.960;2023-03-13T21:04:30;45299.50;;;-144.43;53.15
37486;BME280;23341;50.296;18.960;2023-03-13T21:09:35;45325.44;;;-144.43;52.89
37486;BME280;23341;50.296;18.960;2023-03-13T21:14:39;45319.47;;;-144.43;53.04
37486;BME280;23341;50.296;18.960;2023-03-13T21:19:45;45355.41;;;-144.43;53.31
37486;BME280;23341;50.296;18.960;2023-03-13T21:24:50;45347.41;;;-144.43;53.41
37486;BME280;23341;50.296;18.960;2023-03-13T21:29:54;45321.44;;;-144.43;53.90
37486;BME280;23341;50.296;18.960;2023-03-13T21:35:00;45331.44;;;-144.43;53.95
37486;BME280;23341;50.296;18.960;2023-03-13T21:40:05;45367.38;;;-144.43;54.29
37486;BME280;23341;50.296;18.960;2023-03-13T21:45:11;45371.38;;;-144.43;54.46
37486;BME280;23341;50.296;18.960;2023-03-13T21:50:17;45409.31;;;-144.43;54.25
37486;BME280;23341;50.296;18.960;2023-03-13T21:55:26;45403.31;;;-144.43;54.85
37486;BME280;23341;50.296;18.960;2023-03-13T22:00:31;45405.31;;;-144.43;54.91
37486;BME280;23341;50.296;18.960;2023-03-13T22:05:40;45397.31;;;-144.43;55.33
37486;BME280;23341;50.296;18.960;2023-03-13T22:10:46;45407.31;;;-144.43;55.75
37486;BME280;23341;50.296;18.960;2023-03-13T22:15:52;45413.31;;;-144.43;56.27
37486;BME280;23341;50.296;18.960;2023-03-13T22:20:58;45415.28;;;-144.43;56.71
37486;BME280;23341;50.296;18.960;2023-03-13T22:26:04;45383.34;;;-144.43;57.00
37486;BME280;23341;50.296;18.960;2023-03-13T22:31:09;45411.31;;;-144.43;57.00
37486;BME280;23341;50.296;18.960;2023-03-13T22:36:15;45379.34;;;-144.43;57.37
37486;BME280;23341;50.296;18.960;2023-03-13T22:41:19;45391.34;;;-144.43;57.58
37486;BME280;23341;50.296;18.960;2023-03-13T22:46:23;45397.31;;;-144.43;57.42
37486;BME280;23341;50.296;18.960;2023-03-13T22:51:29;45365.38;;;-144.43;56.96
37486;BME280;23341;50.296;18.960;2023-03-13T22:56:33;45377.34;;;-144.43;57.12
37486;BME280;23341;50.296;18.960;2023-03-13T23:01:38;45399.31;;;-144.43;57.26
37486;BME280;23341;50.296;18.960;2023-03-13T23:06:44;45395.31;;;-144.43;57.45
37486;BME280;23341;50.296;18.960;2023-03-13T23:11:49;45409.31;;;-144.43;57.80
37486;BME280;23341;50.296;18.960;2023-03-13T23:16:53;45373.38;;;-144.43;58.36
37486;BME280;23341;50.296;18.960;2023-03-13T23:21:59;45373.38;;;-144.43;58.63
37486;BME280;23341;50.296;18.960;2023-03-13T23:27:03;45381.34;;;-144.43;58.04
37486;BME280;23341;50.296;18.960;2023-03-13T23:32:08;45365.38;;;-144.43;58.45
37486;BME280;23341;50.296;18.960;2023-03-13T23:37:13;45371.38;;;-144.43;58.67
37486;BME280;23341;50.296;18.960;2023-03-13T23:42:18;45407.31;;;-144.43;58.68
37486;BME280;23341;50.296;18.960;2023-03-13T23:47:22;45373.38;;;-144.43;58.41
37486;BME280;23341;50.296;18.960;2023-03-13T23:52:28;45363.38;;;-144.43;58.56
37486;BME280;23341;50.296;18.960;2023-03-13T23:57:32;45377.34;;;-144.43;58.75
